Time;durP1;ratioP1;P1;durP2;ratioP2;P2;SDS_P1;SDS_P2;PMS_P1;PMS_P2;Temp;Humidity;BMP_temperature;BMP_pressure;BME280_temperature;BME280_humidity;BME280_pressure;Samples;Min_cycle;Max_cycle;Signal;HPM_P1;HPM_P2
2023/03/26 00:01:22;;;;;;;;;;;;;;;;;;12827896;19;20493;-67
2023/03/26 00:06:23;;;;;;;8.55;2.80;;;;;;;;;;12837753;19;20378;-67
2023/03/26 00:11:08;;;;;;;10.27;4.22;;;;;;;;;;12843098;19;20437;-67
2023/03/26 00:16:04;;;;;;;8.20;3.72;;;;;;;;;;12843940;19;20366;-67
2023/03/26 00:21:42;;;;;;;6.63;3.42;;;;;;;;;;12840281;19;20468;-68
2023/03/26 00:26:14;;;;;;;10.05;3.95;;;;;;;;;;12834344;19;20025;-68
2023/03/26 00:37:52;;;;;;;9.63;4.78;;;;;;;;;;12731826;19;2005055;-67
2023/03/26 00:42:20;;;;;;;12.15;4.28;;;;;;;;;;12831811;19;20397;-67
2023/03/26 00:46:58;;;;;;;8.13;3.85;;;;;;;;;;12835737;19;20439;-67
2023/03/26 00:58:48;;;;;;;7.32;3.17;;;;;;;;;;12727861;19;2005007;-68
2023/03/26 01:10:08;;;;;;;10.55;4.30;;;;;;;;;;12831121;19;20311;-67
2023/03/26 01:15:28;;;;;;;8.07;4.18;;;;;;;;;;12822577;19;20371;-67
2023/03/26 01:21:08;;;;;;;10.27;4.38;;;;;;;;;;12820215;19;20303;-66
2023/03/26 01:25:49;;;;;;;6.82;2.97;;;;;;;;;;12820751;19;20347;-65
2023/03/26 01:37:16;;;;;;;7.72;2.83;;;;;;;;;;12819101;19;20498;-67
2023/03/26 01:42:14;;;;;;;6.05;2.30;;;;;;;;;;12817748;19;20318;-66
2023/03/26 01:46:51;;;;;;;5.70;2.45;;;;;;;;;;12819741;19;20434;-66
2023/03/26 01:51:54;;;;;;;6.97;2.60;;;;;;;;;;12823238;19;20419;-67
2023/03/26 01:57:58;;;;;;;6.50;2.33;;;;;;;;;;12826697;19;20365;-66
2023/03/26 02:03:30;;;;;;;5.13;2.45;;;;;;;;;;12817598;19;20078;-66
2023/03/26 02:14:26;;;;;;;6.10;3.50;;;;;;;;;;12816046;19;20422;-66
2023/03/26 02:19:14;;;;;;;15.30;4.97;;;;;;;;;;12815657;19;20015;-66
2023/03/26 02:30:28;;;;;;;5.30;3.00;;;;;;;;;;12713125;19;2004652;-67
2023/03/26 02:35:18;;;;;;;5.30;2.53;;;;;;;;;;12816786;19;19998;-66
2023/03/26 02:40:13;;;;;;;11.73;4.65;;;;;;;;;;12815288;19;20113;-66
2023/03/26 02:50:56;;;;;;;5.35;2.63;;;;;;;;;;12814526;19;20010;-66
2023/03/26 02:55:26;;;;;;;4.05;2.38;;;;;;;;;;12807204;19;20010;-67
2023/03/26 03:00:03;;;;;;;5.32;2.22;;;;;;;;;;12809372;19;20308;-67
2023/03/26 03:05:00;;;;;;;6.32;2.83;;;;;;;;;;12792172;19;20430;-66
2023/03/26 03:09:33;;;;;;;5.03;3.27;;;;;;;;;;12793289;19;20011;-66
2023/03/26 03:14:13;;;;;;;6.10;3.40;;;;;;;;;;12807457;19;20457;-67
2023/03/26 03:19:07;;;;;;;5.53;3.63;;;;;;;;;;12819627;19;20664;-67
2023/03/26 03:23:47;;;;;;;4.70;3.10;;;;;;;;;;12818363;19;20338;-67
2023/03/26 03:29:05;;;;;;;8.20;3.50;;;;;;;;;;12818495;19;20493;-67
2023/03/26 03:34:05;;;;;;;5.30;2.30;;;;;;;;;;12822045;19;20367;-66
2023/03/26 03:38:51;;;;;;;3.13;1.50;;;;;;;;;;12816946;19;20034;-67
2023/03/26 03:43:50;;;;;;;4.18;2.17;;;;;;;;;;12823871;19;20596;-66
2023/03/26 03:49:01;;;;;;;4.45;2.50;;;;;;;;;;12821346;19;20307;-66
2023/03/26 03:53:49;;;;;;;5.80;2.60;;;;;;;;;;12814562;19;20398;-67
2023/03/26 03:58:54;;;;;;;4.05;2.30;;;;;;;;;;12821142;19;20541;-66
2023/03/26 04:03:26;;;;;;;4.10;2.10;;;;;;;;;;12820551;19;20465;-66
2023/03/26 04:09:20;;;;;;;3.35;1.90;;;;;;;;;;12818377;19;20485;-66
2023/03/26 04:14:07;;;;;;;7.13;2.20;;;;;;;;;;12814695;19;20382;-66
2023/03/26 04:19:02;;;;;;;4.15;2.05;;;;;;;;;;12815459;19;20011;-66
2023/03/26 04:30:28;;;;;;;3.88;2.22;;;;;;;;;;12717362;19;2004871;-66
2023/03/26 04:35:24;;;;;;;4.72;2.33;;;;;;;;;;12814367;19;20011;-66
2023/03/26 04:46:59;;;;;;;6.10;2.65;;;;;;;;;;12815046;19;20306;-66
2023/03/26 04:51:47;;;;;;;5.93;3.13;;;;;;;;;;12829808;19;20502;-66
2023/03/26 04:56:59;;;;;;;6.72;2.90;;;;;;;;;;12822883;19;20325;-66
2023/03/26 05:02:12;;;;;;;7.03;3.55;;;;;;;;;;12822490;19;20576;-66
2023/03/26 05:07:52;;;;;;;5.70;2.90;;;;;;;;;;12820598;19;20406;-66
2023/03/26 05:12:47;;;;;;;9.25;3.53;;;;;;;;;;12819618;19;20351;-67
2023/03/26 05:17:43;;;;;;;4.78;2.50;;;;;;;;;;12820607;19;20415;-66
2023/03/26 05:23:00;;;;;;;5.28;2.22;;;;;;;;;;12818908;19;20018;-66
2023/03/26 05:27:56;;;;;;;7.10;2.33;;;;;;;;;;12818708;19;20315;-66
2023/03/26 05:32:15;;;;;;;;;;;;;;;;;;12819705;19;20485;-66
2023/03/26 05:38:13;;;;;;;5.55;2.47;;;;;;;;;;12821188;19;20359;-66
2023/03/26 05:43:19;;;;;;;3.80;2.05;;;;;;;;;;12717014;19;2005130;-67
2023/03/26 05:48:24;;;;;;;5.50;2.33;;;;;;;;;;12819685;19;20326;-67
2023/03/26 05:53:14;;;;;;;3.05;1.70;;;;;;;;;;12816902;19;20066;-66
2023/03/26 06:04:30;;;;;;;3.42;2.17;;;;;;;;;;12818032;19;20909;-66
2023/03/26 06:09:05;;;;;;;3.83;1.53;;;;;;;;;;12817074;19;20322;-65
2023/03/26 06:13:59;;;;;;;4.40;1.92;;;;;;;;;;12817201;19;20315;-66
2023/03/26 06:18:22;;;;;;;5.05;1.88;;;;;;;;;;12812848;19;20312;-67
2023/03/26 06:24:02;;;;;;;5.00;1.63;;;;;;;;;;12813552;19;20390;-66
2023/03/26 06:28:30;;;;;;;7.55;2.53;;;;;;;;;;12818074;19;20457;-66
2023/03/26 06:33:26;;;;;;;5.55;1.98;;;;;;;;;;12816065;19;20074;-66
2023/03/26 06:37:50;;;;;;;3.22;1.52;;;;;;;;;;12816586;19;20362;-66
2023/03/26 06:42:51;;;;;;;5.55;2.20;;;;;;;;;;12817388;19;21047;-66
2023/03/26 06:48:03;;;;;;;4.47;2.13;;;;;;;;;;12817183;19;20788;-66
2023/03/26 06:53:22;;;;;;;3.67;1.27;;;;;;;;;;12814237;19;20310;-67
2023/03/26 06:58:13;;;;;;;5.70;2.20;;;;;;;;;;12817597;19;21015;-66
2023/03/26 07:09:17;;;;;;;3.53;1.48;;;;;;;;;;12713178;19;2005041;-66
2023/03/26 07:15:15;;;;;;;2.42;1.17;;;;;;;;;;12814018;19;20383;-66
2023/03/26 07:19:48;;;;;;;6.67;2.17;;;;;;;;;;12814415;19;20546;-67
2023/03/26 07:30:59;;;;;;;6.68;2.58;;;;;;;;;;12809649;19;20422;-66
2023/03/26 07:46:58;;;;;;;5.90;1.30;;;;;;;;;;12813711;19;20495;-67
2023/03/26 07:52:09;;;;;;;3.42;1.40;;;;;;;;;;12819227;19;20442;-66
2023/03/26 08:04:06;;;;;;;3.45;1.55;;;;;;;;;;12716021;19;2004976;-67
2023/03/26 08:09:10;;;;;;;3.20;1.42;;;;;;;;;;12818319;19;20302;-66
2023/03/26 08:14:49;;;;;;;2.85;1.55;;;;;;;;;;12819205;19;20482;-66
2023/03/26 08:19:58;;;;;;;4.45;1.90;;;;;;;;;;12817497;19;20362;-66
2023/03/26 08:24:54;;;;;;;6.07;1.83;;;;;;;;;;12830549;19;20422;-66
2023/03/26 08:35:25;;;;;;;4.75;2.40;;;;;;;;;;12805323;19;22383;-67
2023/03/26 08:41:05;;;;;;;6.90;3.90;;;;;;;;;;12810857;19;20337;-67
2023/03/26 08:46:45;;;;;;;6.95;2.72;;;;;;;;;;12808172;19;20972;-66
2023/03/26 08:52:50;;;;;;;4.53;1.30;;;;;;;;;;12805890;19;21042;-66
2023/03/26 08:58:11;;;;;;;4.00;1.60;;;;;;;;;;12807652;19;20052;-66
2023/03/26 09:03:55;;;;;;;1.98;1.17;;;;;;;;;;12809764;19;20050;-66
2023/03/26 09:09:14;;;;;;;3.15;1.50;;;;;;;;;;12806829;19;20346;-67
2023/03/26 09:14:50;;;;;;;2.88;1.65;;;;;;;;;;12819421;19;20321;-67
2023/03/26 09:20:06;;;;;;;4.70;1.75;;;;;;;;;;12825209;19;20015;-67
2023/03/26 09:31:09;;;;;;;4.38;1.20;;;;;;;;;;12824667;19;20873;-67
2023/03/26 09:36:23;;;;;;;7.65;3.00;;;;;;;;;;12817813;19;20481;-66
2023/03/26 09:42:19;;;;;;;3.97;1.33;;;;;;;;;;12821640;19;20422;-67
2023/03/26 09:47:48;;;;;;;1.77;0.88;;;;;;;;;;12819487;19;20110;-67
2023/03/26 09:53:03;;;;;;;1.52;0.90;;;;;;;;;;12818343;19;20438;-67
2023/03/26 10:04:47;;;;;;;6.15;1.67;;;;;;;;;;12718655;19;2006339;-67
2023/03/26 10:10:27;;;;;;;3.40;1.20;;;;;;;;;;12823285;19;20007;-67
2023/03/26 10:21:28;;;;;;;2.13;0.70;;;;;;;;;;12822317;19;20362;-67
2023/03/26 10:27:06;;;;;;;0.77;0.40;;;;;;;;;;12821545;19;20429;-67
2023/03/26 10:38:49;;;;;;;0.73;0.52;;;;;;;;;;12714472;19;2005779;-67
2023/03/26 10:44:29;;;;;;;1.58;0.70;;;;;;;;;;12818273;19;20486;-67
2023/03/26 10:50:29;;;;;;;5.82;1.33;;;;;;;;;;12815296;19;20011;-67
2023/03/26 10:55:13;;;;;;;;;;;;;;;;;;12815609;19;20905;-67
2023/03/26 10:59:48;;;;;;;6.25;2.13;;;;;;;;;;12815321;19;20297;-67
2023/03/26 11:11:02;;;;;;;5.82;1.77;;;;;;;;;;12812938;19;20352;-66
2023/03/26 11:16:04;;;;;;;4.78;1.73;;;;;;;;;;12810676;19;20424;-67
2023/03/26 11:26:55;;;;;;;6.53;2.03;;;;;;;;;;12815587;19;20240;-67
2023/03/26 11:32:11;;;;;;;4.80;1.70;;;;;;;;;;12819743;19;20505;-67
2023/03/26 11:48:53;;;;;;;3.50;0.90;;;;;;;;;;12812981;19;20419;-67
2023/03/26 11:53:30;;;;;;;4.18;1.27;;;;;;;;;;12813057;19;20433;-67
2023/03/26 12:04:58;;;;;;;6.53;2.42;;;;;;;;;;12809841;19;20307;-67
2023/03/26 12:10:03;;;;;;;8.90;2.60;;;;;;;;;;12810908;19;20449;-67
2023/03/26 12:21:15;;;;;;;3.75;1.90;;;;;;;;;;12709528;19;2005104;-68
2023/03/26 12:26:13;;;;;;;7.35;2.60;;;;;;;;;;12810343;19;20082;-67
2023/03/26 12:31:00;;;;;;;7.40;2.47;;;;;;;;;;12811233;19;20457;-67
2023/03/26 12:47:45;;;;;;;16.67;6.07;;;;;;;;;;12815830;19;20376;-68
2023/03/26 12:53:29;;;;;;;22.30;9.02;;;;;;;;;;12816795;19;20457;-67
2023/03/26 12:59:11;;;;;;;9.65;2.47;;;;;;;;;;12815923;19;20358;-68
2023/03/26 13:04:17;;;;;;;5.25;2.33;;;;;;;;;;12816746;19;20054;-68
2023/03/26 13:09:28;;;;;;;3.45;1.70;;;;;;;;;;12819897;19;20367;-68
2023/03/26 13:20:25;;;;;;;5.45;1.60;;;;;;;;;;12827032;19;20006;-68
2023/03/26 13:31:16;;;;;;;8.45;3.33;;;;;;;;;;12819919;19;20884;-67
2023/03/26 13:36:25;;;;;;;5.22;1.70;;;;;;;;;;12818793;19;20430;-67
2023/03/26 13:47:51;;;;;;;7.63;3.20;;;;;;;;;;12818478;19;20010;-68
2023/03/26 13:52:51;;;;;;;;;;;;;;;;;;12818323;19;20354;-67
2023/03/26 13:58:18;;;;;;;5.72;2.20;;;;;;;;;;12819590;19;20028;-68
2023/03/26 14:03:17;;;;;;;4.85;1.30;;;;;;;;;;12816859;19;20454;-68
2023/03/26 14:07:59;;;;;;;3.30;1.73;;;;;;;;;;12816890;19;20460;-68
2023/03/26 14:13:24;;;;;;;8.38;3.15;;;;;;;;;;12816784;19;20086;-68
2023/03/26 14:19:05;;;;;;;4.53;1.98;;;;;;;;;;12802638;19;20369;-68
2023/03/26 14:24:19;;;;;;;2.83;1.20;;;;;;;;;;12817118;19;20295;-67
2023/03/26 14:35:51;;;;;;;8.75;2.88;;;;;;;;;;12714539;19;2004862;-68
2023/03/26 14:41:47;;;;;;;4.57;2.45;;;;;;;;;;12814866;19;20336;-68
2023/03/26 14:47:25;;;;;;;4.32;1.50;;;;;;;;;;12815108;19;20322;-68
2023/03/26 14:59:13;;;;;;;9.15;3.33;;;;;;;;;;12815999;19;20007;-68
2023/03/26 15:16:46;;;;;;;20.63;9.43;;;;;;;;;;12818375;19;20409;-66
2023/03/26 15:28:23;;;;;;;23.30;13.57;;;;;;;;;;12821113;19;20010;-65
2023/03/26 15:33:47;;;;;;;24.50;11.07;;;;;;;;;;12818159;19;20314;-66
2023/03/26 15:39:05;;;;;;;6.38;4.07;;;;;;;;;;12821718;19;20149;-65
2023/03/26 15:43:57;;;;;;;4.55;3.30;;;;;;;;;;12813341;19;20038;-64
2023/03/26 15:49:13;;;;;;;11.38;6.75;;;;;;;;;;12813198;19;20442;-66
2023/03/26 16:00:21;;;;;;;3.20;1.67;;;;;;;;;;12811426;19;20384;-66
2023/03/26 16:05:18;;;;;;;21.77;8.48;;;;;;;;;;12809998;19;20722;-65
2023/03/26 16:10:51;;;;;;;5.13;2.10;;;;;;;;;;12811300;19;20959;-65
2023/03/26 16:27:32;;;;;;;8.52;3.72;;;;;;;;;;12810150;19;20425;-66
2023/03/26 16:33:06;;;;;;;2.50;1.50;;;;;;;;;;12809915;19;20318;-66
2023/03/26 16:38:23;;;;;;;1.92;1.13;;;;;;;;;;12812112;19;20486;-66
2023/03/26 16:43:47;;;;;;;16.63;9.65;;;;;;;;;;12813871;19;20511;-67
2023/03/26 16:49:07;;;;;;;6.88;2.55;;;;;;;;;;12826406;19;20023;-67
2023/03/26 17:00:14;;;;;;;3.25;1.00;;;;;;;;;;12820924;19;20388;-67
2023/03/26 17:11:54;;;;;;;27.35;15.60;;;;;;;;;;12717693;19;2005199;-66
2023/03/26 17:17:12;;;;;;;;;;;;;;;;;;12820021;19;20018;-65
2023/03/26 17:22:28;;;;;;;24.20;8.48;;;;;;;;;;12820141;19;20464;-66
2023/03/26 17:28:15;;;;;;;43.97;9.63;;;;;;;;;;12821068;19;20485;-67
2023/03/26 17:33:53;;;;;;;10.73;4.93;;;;;;;;;;12820506;19;20326;-66
2023/03/26 17:38:45;;;;;;;27.67;9.02;;;;;;;;;;12825600;19;20090;-67
2023/03/26 17:43:46;;;;;;;20.60;7.05;;;;;;;;;;12826875;19;20508;-67
2023/03/26 17:49:02;;;;;;;19.42;6.10;;;;;;;;;;12821805;19;20309;-66
2023/03/26 17:53:51;;;;;;;17.38;7.43;;;;;;;;;;12825343;19;20378;-66
2023/03/26 18:05:45;;;;;;;12.05;5.13;;;;;;;;;;12825108;19;20388;-67
2023/03/26 18:11:29;;;;;;;12.17;5.67;;;;;;;;;;12818050;19;20434;-66
2023/03/26 18:17:16;;;;;;;14.85;6.38;;;;;;;;;;12817234;19;20494;-66
2023/03/26 18:22:58;;;;;;;70.30;28.33;;;;;;;;;;12813741;19;20589;-67
2023/03/26 18:27:47;;;;;;;120.82;41.85;;;;;;;;;;12819799;19;20470;-66
2023/03/26 18:39:17;;;;;;;49.10;20.58;;;;;;;;;;12715664;19;2005706;-66
2023/03/26 18:44:18;;;;;;;46.92;18.75;;;;;;;;;;12813457;19;20430;-67
2023/03/26 18:49:02;;;;;;;100.95;32.13;;;;;;;;;;12815230;19;20319;-66
2023/03/26 19:00:08;;;;;;;33.67;15.48;;;;;;;;;;12814446;19;20411;-67
2023/03/26 19:05:30;;;;;;;53.70;19.17;;;;;;;;;;12809368;19;21126;-66
2023/03/26 19:10:23;;;;;;;58.78;22.50;;;;;;;;;;12815684;19;20495;-66
2023/03/26 19:20:59;;;;;;;65.15;23.17;;;;;;;;;;12819240;19;20307;-66
2023/03/26 19:25:55;;;;;;;75.85;25.58;;;;;;;;;;12820761;19;20438;-67
2023/03/26 19:43:04;;;;;;;123.30;33.78;;;;;;;;;;12819371;19;20452;-66
2023/03/26 19:47:47;;;;;;;64.95;23.00;;;;;;;;;;12819627;19;20463;-67
2023/03/26 19:53:21;;;;;;;88.18;26.98;;;;;;;;;;12817931;19;20386;-67
2023/03/26 19:58:53;;;;;;;101.45;30.20;;;;;;;;;;12820294;19;20448;-67
2023/03/26 20:03:50;;;;;;;99.00;29.92;;;;;;;;;;12819942;19;20493;-66
2023/03/26 20:09:10;;;;;;;63.97;23.27;;;;;;;;;;12819136;19;20493;-67
2023/03/26 20:19:04;;;;;;;42.30;16.75;;;;;;;;;;12824681;19;20302;-66
2023/03/26 20:23:52;;;;;;;43.53;16.95;;;;;;;;;;12831651;19;20010;-66
2023/03/26 20:28:18;;;;;;;65.03;20.95;;;;;;;;;;12834746;19;20486;-67
2023/03/26 20:34:10;;;;;;;275.60;61.05;;;;;;;;;;12826489;19;20029;-66
2023/03/26 20:38:50;;;;;;;269.70;56.33;;;;;;;;;;12830638;19;20453;-66
2023/03/26 20:43:20;;;;;;;98.45;26.90;;;;;;;;;;12830503;19;20383;-66
2023/03/26 20:49:13;;;;;;;17.42;7.95;;;;;;;;;;12831043;19;20297;-67
2023/03/26 20:54:05;;;;;;;15.55;6.80;;;;;;;;;;12831870;19;20528;-66
2023/03/26 20:59:04;;;;;;;16.17;6.75;;;;;;;;;;12828196;19;20322;-66
2023/03/26 21:03:49;;;;;;;10.15;4.15;;;;;;;;;;12828710;19;20434;-66
2023/03/26 21:15:12;;;;;;;7.32;3.65;;;;;;;;;;12719249;19;2006255;-66
2023/03/26 21:20:45;;;;;;;5.68;3.30;;;;;;;;;;12818958;19;20395;-66
2023/03/26 21:31:48;;;;;;;6.65;3.17;;;;;;;;;;12817041;19;20010;-66
2023/03/26 21:41:49;;;;;;;8.60;3.10;;;;;;;;;;12734048;19;2970543;-66
2023/03/26 21:47:01;;;;;;;8.15;2.55;;;;;;;;;;12880542;19;20756;-67
2023/03/26 21:52:23;;;;;;;9.77;2.85;;;;;;;;;;12880711;19;20489;-66
2023/03/26 21:57:20;;;;;;;13.77;3.53;;;;;;;;;;12880489;19;20441;-66
2023/03/26 22:07:55;;;;;;;5.82;2.72;;;;;;;;;;12879547;19;20074;-67
2023/03/26 22:12:56;;;;;;;3.85;2.47;;;;;;;;;;12878725;19;20011;-67
2023/03/26 22:18:20;;;;;;;46.85;12.48;;;;;;;;;;12881152;19;20425;-66
2023/03/26 22:23:21;;;;;;;11.95;4.93;;;;;;;;;;12876238;19;20666;-67
2023/03/26 22:28:04;;;;;;;16.50;6.60;;;;;;;;;;12878366;19;20002;-66
2023/03/26 22:32:58;;;;;;;8.57;4.28;;;;;;;;;;12880768;19;20464;-67
2023/03/26 22:38:10;;;;;;;17.42;5.82;;;;;;;;;;12877576;19;20425;-66
2023/03/26 22:43:13;;;;;;;8.18;3.78;;;;;;;;;;12876735;19;20429;-67
2023/03/26 22:53:50;;;;;;;8.80;3.38;;;;;;;;;;12826634;19;20312;-67
2023/03/26 22:59:00;;;;;;;5.53;2.72;;;;;;;;;;12820324;19;20306;-67
2023/03/26 23:08:47;;;;;;;6.70;4.20;;;;;;;;;;12821133;19;20013;-67
2023/03/26 23:14:00;;;;;;;65.85;17.15;;;;;;;;;;12818045;19;20341;-66
2023/03/26 23:18:55;;;;;;;175.63;42.13;;;;;;;;;;12817583;19;20312;-67
2023/03/26 23:24:16;;;;;;;64.07;17.02;;;;;;;;;;12819869;19;20430;-67
2023/03/26 23:29:22;;;;;;;9.45;4.47;;;;;;;;;;12817214;19;20010;-66
2023/03/26 23:34:20;;;;;;;8.65;4.30;;;;;;;;;;12817468;19;20322;-67
2023/03/26 23:40:21;;;;;;;14.45;5.50;;;;;;;;;;12818187;19;20035;-67
2023/03/26 23:45:38;;;;;;;84.05;24.17;;;;;;;;;;12815953;19;20026;-67
2023/03/26 23:50:10;;;;;;;47.47;16.30;;;;;;;;;;12814452;19;20372;-67
2023/03/26 23:55:20;;;;;;;44.13;12.25;;;;;;;;;;12818530;19;20446;-67
